Time;durP1;ratioP1;P1;durP2;ratioP2;P2;SDS_P1;SDS_P2;PMS_P1;PMS_P2;Temp;Humidity;BMP_temperature;BMP_pressure;BME280_temperature;BME280_humidity;BME280_pressure;Samples;Min_cycle;Max_cycle;Signal;HPM_P1;HPM_P2
2022/01/26 00:07:33;;;;;;;38.00;15.05;;;;;;;4.91;100.00;100534.03;4932696;29;20035;-88
2022/01/26 00:09:59;;;;;;;35.78;14.95;;;;;;;4.92;100.00;100533.13;4908327;29;20782;-86
2022/01/26 00:12:24;;;;;;;27.33;12.38;;;;;;;4.87;100.00;100524.81;4913653;29;20055;-84
2022/01/26 00:14:50;;;;;;;30.00;13.43;;;;;;;5.05;100.00;100530.38;4927837;29;20039;-87
2022/01/26 00:17:15;;;;;;;31.42;13.27;;;;;;;5.05;100.00;100547.75;4898426;29;20032;-87
2022/01/26 00:19:54;;;;;;;27.98;12.88;;;;;;;5.04;100.00;100554.75;4929557;29;20036;-86
2022/01/26 00:38:37;;;;;;;31.48;15.23;;;;;;;4.74;100.00;100581.38;4910658;29;20554;-88
2022/01/26 00:41:06;;;;;;;36.35;15.65;;;;;;;4.92;100.00;100579.94;4912694;29;20054;-86
2022/01/26 00:43:33;;;;;;;35.30;16.88;;;;;;;4.83;100.00;100565.03;4918385;29;20039;-88
2022/01/26 00:46:00;;;;;;;37.88;16.63;;;;;;;4.82;100.00;100571.19;4929842;29;20555;-86
2022/01/26 00:48:30;;;;;;;45.00;17.50;;;;;;;4.80;100.00;100566.09;4914768;29;20024;-89
2022/01/26 00:50:59;;;;;;;42.22;18.70;;;;;;;4.82;100.00;100569.44;4913682;29;20110;-87
2022/01/26 00:53:32;;;;;;;39.17;16.85;;;;;;;4.77;100.00;100573.31;4919848;29;20106;-87
2022/01/26 00:55:57;;;;;;;40.83;18.30;;;;;;;4.74;100.00;100563.16;4911912;29;20024;-86
2022/01/26 00:58:23;;;;;;;47.95;18.30;;;;;;;4.80;100.00;100560.09;4905418;29;20106;-86
2022/01/26 01:00:49;;;;;;;42.33;17.50;;;;;;;4.51;100.00;100543.16;4927295;29;20056;-87
2022/01/26 01:03:15;;;;;;;39.47;17.63;;;;;;;4.65;100.00;100552.50;4915508;29;20032;-87
2022/01/26 01:05:51;;;;;;;42.92;18.27;;;;;;;4.86;100.00;100542.22;4932343;29;20059;-86
2022/01/26 01:08:20;;;;;;;46.50;17.73;;;;;;;4.81;100.00;100535.72;4898279;29;20046;-86
2022/01/26 01:10:47;;;;;;;40.95;17.98;;;;;;;4.77;100.00;100537.72;4924371;29;20058;-88
2022/01/26 01:13:18;;;;;;;41.30;18.52;;;;;;;4.84;100.00;100532.88;4927651;29;20071;-86
2022/01/26 01:15:45;;;;;;;44.13;19.33;;;;;;;4.83;100.00;100532.06;4925905;29;20032;-88
2022/01/26 01:18:21;;;;;;;46.53;20.45;;;;;;;4.89;100.00;100541.13;4948671;29;20035;-85
2022/01/26 01:31:40;;;;;;;54.67;22.13;;;;;;;4.68;100.00;100580.06;4948798;29;20398;-86
2022/01/26 01:34:07;;;;;;;47.42;20.40;;;;;;;4.75;100.00;100564.81;4927351;29;20028;-86
2022/01/26 01:36:37;;;;;;;45.67;19.42;;;;;;;4.76;100.00;100566.47;4929248;29;20031;-87
2022/01/26 01:39:09;;;;;;;44.17;19.40;;;;;;;4.75;100.00;100564.81;4924617;29;20027;-87
2022/01/26 01:41:37;;;;;;;40.20;18.27;;;;;;;4.75;100.00;100538.81;4926854;29;20050;-87
2022/01/26 01:44:05;;;;;;;35.15;16.65;;;;;;;4.76;100.00;100543.88;4930333;29;20323;-88
2022/01/26 01:46:32;;;;;;;40.05;17.00;;;;;;;4.81;100.00;100546.13;4915674;29;20034;-86
2022/01/26 01:48:58;;;;;;;36.50;16.38;;;;;;;4.91;100.00;100570.47;4932721;29;20553;-86
2022/01/26 01:51:47;;;;;;;37.15;15.10;;;;;;;4.83;100.00;100558.06;4941579;29;20040;-85
2022/01/26 01:54:17;;;;;;;36.90;16.80;;;;;;;4.89;100.00;100556.75;4943640;29;20027;-87
2022/01/26 01:56:50;;;;;;;31.27;15.20;;;;;;;4.94;100.00;100559.00;4931046;29;20031;-86
2022/01/26 01:59:16;;;;;;;33.92;16.23;;;;;;;4.77;100.00;100552.53;4945009;29;20035;-85
2022/01/26 02:01:42;;;;;;;36.58;14.38;;;;;;;4.88;100.00;100541.28;4945471;29;20082;-87
2022/01/26 02:04:08;;;;;;;35.40;15.90;;;;;;;4.97;100.00;100549.19;4928462;29;20148;-86
2022/01/26 02:06:34;;;;;;;32.17;15.10;;;;;;;4.84;100.00;100543.28;4912926;29;20076;-85
2022/01/26 02:09:00;;;;;;;34.70;16.80;;;;;;;4.91;100.00;100547.03;4945221;29;20614;-85
2022/01/26 02:11:26;;;;;;;36.25;17.10;;;;;;;4.90;100.00;100550.59;4931877;29;20091;-85
2022/01/26 02:15:03;;;;;;;37.63;16.88;;;;;;;4.90;100.00;100534.97;4930591;29;20058;-86
2022/01/26 02:16:55;;;;;;;34.15;16.77;;;;;;;4.83;100.00;100542.47;4928132;29;20102;-86
2022/01/26 02:52:30;;;;;;;37.63;16.58;;;;;;;5.15;100.00;100567.72;4951781;29;20027;-86
2022/01/26 02:55:44;;;;;;;38.88;18.83;;;;;;;5.31;100.00;100581.31;4938436;29;20059;-85
2022/01/26 03:00:25;;;;;;;35.58;18.10;;;;;;;5.34;100.00;100586.28;4926586;29;20040;-86
2022/01/26 03:02:58;;;;;;;40.10;19.80;;;;;;;5.28;100.00;100577.16;4923748;29;20494;-87
2022/01/26 03:05:30;;;;;;;42.50;19.00;;;;;;;5.35;100.00;100582.72;4944806;29;20032;-88
2022/01/26 03:08:01;;;;;;;35.72;17.80;;;;;;;5.20;100.00;100584.75;4915614;29;20055;-88
2022/01/26 03:12:58;;;;;;;33.83;16.13;;;;;;;5.27;100.00;100581.53;4910827;29;20039;-88
2022/01/26 03:15:30;;;;;;;38.95;17.50;;;;;;;5.33;100.00;100563.78;4892416;29;20035;-88
2022/01/26 03:21:00;;;;;;;38.28;17.85;;;;;;;5.21;100.00;100571.63;4876939;29;20040;-89
2022/01/26 03:34:08;;;;;;;33.00;16.27;;;;;;;5.24;100.00;100537.53;4928526;29;20024;-87
2022/01/26 03:36:44;;;;;;;36.50;16.48;;;;;;;5.32;100.00;100546.53;4924821;29;20036;-87
2022/01/26 03:39:11;;;;;;;31.23;16.10;;;;;;;5.34;100.00;100542.00;4914011;29;20449;-85
2022/01/26 03:44:04;;;;;;;38.67;16.83;;;;;;;5.22;100.00;100546.44;4932315;29;20123;-87
2022/01/26 03:46:30;;;;;;;35.92;15.18;;;;;;;5.32;100.00;100556.94;4929343;29;20032;-86
2022/01/26 03:48:56;;;;;;;34.60;15.88;;;;;;;5.24;100.00;100550.53;4897897;29;20083;-85
2022/01/26 03:51:21;;;;;;;36.28;16.48;;;;;;;5.20;100.00;100559.56;4937829;29;20430;-87
2022/01/26 03:53:47;;;;;;;37.17;16.48;;;;;;;5.11;100.00;100570.69;4905242;29;20056;-85
2022/01/26 03:56:13;;;;;;;36.75;16.10;;;;;;;5.10;100.00;100559.44;4931735;29;20453;-85
2022/01/26 03:58:38;;;;;;;34.90;15.43;;;;;;;5.20;100.00;100563.91;4920558;29;20032;-86
2022/01/26 04:01:04;;;;;;;31.00;15.43;;;;;;;5.33;100.00;100563.78;4934455;29;20126;-85
2022/01/26 04:03:30;;;;;;;35.22;15.65;;;;;;;5.23;100.00;100543.69;4914509;29;20030;-85
2022/01/26 04:05:55;;;;;;;32.75;14.88;;;;;;;5.24;100.00;100555.75;4910530;29;20028;-86
2022/01/26 04:08:27;;;;;;;31.02;14.60;;;;;;;5.27;100.00;100552.91;4923364;29;20090;-87
2022/01/26 04:11:38;;;;;;;29.48;13.38;;;;;;;5.65;100.00;100552.53;4917248;29;20442;-85
2022/01/26 04:13:44;;;;;;;33.38;14.55;;;;;;;5.79;100.00;100578.31;4934909;29;20043;-86
2022/01/26 04:16:10;;;;;;;30.52;13.00;;;;;;;6.07;100.00;100564.81;4925245;29;20076;-86
2022/01/26 04:18:39;;;;;;;32.92;13.80;;;;;;;6.15;100.00;100570.22;4923296;29;20176;-85
2022/01/26 04:24:13;;;;;;;28.67;14.25;;;;;;;6.65;100.00;100577.34;4921556;29;20056;-87
2022/01/26 04:29:11;;;;;;;27.45;14.43;;;;;;;6.53;100.00;100557.53;4928096;29;20035;-87
2022/01/26 04:31:37;;;;;;;32.83;13.52;;;;;;;6.63;100.00;100558.38;4927575;29;20110;-89
2022/01/26 04:34:02;;;;;;;32.15;14.23;;;;;;;6.64;100.00;100561.84;4920581;29;20496;-87
2022/01/26 04:36:43;;;;;;;31.50;13.60;;;;;;;6.71;100.00;100566.41;4949903;29;20040;-87
2022/01/26 04:39:14;;;;;;;28.85;13.65;;;;;;;6.88;100.00;100563.28;4930582;29;20434;-86
2022/01/26 04:41:46;;;;;;;27.00;13.48;;;;;;;6.88;100.00;100566.75;4945374;29;20031;-87
2022/01/26 04:44:35;;;;;;;30.58;14.95;;;;;;;6.88;100.00;100571.97;4928272;29;20048;-87
2022/01/26 04:47:00;;;;;;;29.15;14.38;;;;;;;6.97;100.00;100555.47;4944614;29;20047;-85
2022/01/26 04:49:25;;;;;;;30.10;14.95;;;;;;;6.88;100.00;100538.03;4928096;29;20736;-85
2022/01/26 04:51:51;;;;;;;29.90;15.43;;;;;;;6.84;100.00;100531.41;4913151;29;20035;-87
2022/01/26 04:54:17;;;;;;;30.45;15.38;;;;;;;6.81;100.00;100540.34;4927729;29;20026;-85
2022/01/26 04:56:42;;;;;;;32.35;15.15;;;;;;;6.89;100.00;100541.44;4909639;29;20398;-85
2022/01/26 04:59:08;;;;;;;32.97;14.45;;;;;;;6.87;100.00;100541.56;4947395;29;20379;-85
2022/01/26 05:01:34;;;;;;;30.75;15.10;;;;;;;6.97;100.00;100542.44;4926609;29;20035;-86
2022/01/26 05:04:00;;;;;;;26.67;14.68;;;;;;;7.05;100.00;100551.38;4933212;29;20047;-85
2022/01/26 05:06:26;;;;;;;27.17;14.85;;;;;;;7.13;100.00;100554.97;4948921;29;20470;-88
2022/01/26 05:08:52;;;;;;;33.85;16.38;;;;;;;7.12;100.00;100536.84;4948337;29;20050;-86
2022/01/26 05:11:29;;;;;;;34.13;15.52;;;;;;;7.19;100.00;100527.50;4927190;29;20134;-87
2022/01/26 05:13:56;;;;;;;33.33;17.02;;;;;;;7.25;100.00;100537.38;4945869;29;20028;-89
2022/01/26 05:16:22;;;;;;;33.10;16.15;;;;;;;7.28;100.00;100534.53;4928524;29;20035;-87
2022/01/26 05:18:47;;;;;;;29.33;15.70;;;;;;;7.37;100.00;100534.66;4931908;29;20107;-86
2022/01/26 05:21:13;;;;;;;28.65;15.98;;;;;;;7.41;100.00;100542.09;4944047;29;20122;-86
2022/01/26 05:23:39;;;;;;;34.80;16.80;;;;;;;7.35;100.00;100539.19;4943459;29;20024;-88
2022/01/26 05:26:04;;;;;;;33.42;17.38;;;;;;;7.35;100.00;100537.41;4948089;29;20550;-86
2022/01/26 05:28:29;;;;;;;28.92;16.88;;;;;;;7.34;100.00;100533.13;4931510;29;20023;-86
2022/01/26 05:30:55;;;;;;;35.10;16.48;;;;;;;7.28;100.00;100542.38;4927750;29;20397;-88
2022/01/26 05:33:23;;;;;;;34.67;17.35;;;;;;;7.26;100.00;100543.44;4932800;29;20039;-87
2022/01/26 05:35:50;;;;;;;33.22;16.38;;;;;;;7.34;100.00;100556.66;4946671;29;20047;-88
2022/01/26 05:38:16;;;;;;;33.45;16.90;;;;;;;7.24;100.00;100561.84;4939875;29;20051;-87
2022/01/26 05:40:41;;;;;;;34.67;16.05;;;;;;;7.23;100.00;100533.28;4909081;29;20043;-87
2022/01/26 05:43:07;;;;;;;39.35;17.63;;;;;;;7.21;100.00;100543.84;4925367;29;20393;-86
2022/01/26 05:45:36;;;;;;;35.45;18.33;;;;;;;7.33;100.00;100538.50;4921082;29;20504;-86
2022/01/26 05:48:04;;;;;;;34.13;18.30;;;;;;;7.33;100.00;100538.50;4926791;29;20059;-88
2022/01/26 05:50:33;;;;;;;34.88;17.00;;;;;;;7.34;100.00;100546.19;4946346;29;20035;-87
2022/01/26 05:53:00;;;;;;;41.03;18.88;;;;;;;7.38;100.00;100544.16;4933873;29;20038;-87
2022/01/26 05:55:26;;;;;;;40.15;18.77;;;;;;;7.28;100.00;100531.06;4948710;29;20382;-87
2022/01/26 05:57:52;;;;;;;41.78;20.38;;;;;;;7.38;100.00;100525.84;4929661;29;20031;-85
2022/01/26 06:00:17;;;;;;;44.78;20.23;;;;;;;7.32;100.00;100515.97;4926070;29;20024;-84
2022/01/26 06:02:44;;;;;;;43.85;20.50;;;;;;;7.33;100.00;100509.78;4950491;29;20051;-84
2022/01/26 06:05:10;;;;;;;41.22;20.42;;;;;;;7.22;100.00;100508.94;4930418;29;20035;-85
2022/01/26 06:07:36;;;;;;;50.00;21.70;;;;;;;7.23;100.00;100507.16;4929451;29;20393;-87
2022/01/26 06:10:01;;;;;;;46.85;20.13;;;;;;;7.26;100.00;100509.50;4913876;29;20035;-86
2022/01/26 06:12:29;;;;;;;42.30;20.70;;;;;;;7.14;100.00;100514.84;4930852;29;20037;-89
2022/01/26 06:14:55;;;;;;;40.10;20.55;;;;;;;7.27;100.00;100519.81;4943397;29;20462;-85
2022/01/26 06:17:21;;;;;;;47.42;21.35;;;;;;;7.27;100.00;100527.66;4945542;29;20031;-86
2022/01/26 06:19:46;;;;;;;43.92;21.25;;;;;;;7.30;100.00;100534.38;4925988;29;20038;-84
2022/01/26 06:22:12;;;;;;;45.63;20.73;;;;;;;7.15;100.00;100531.34;4946615;29;20532;-84
2022/01/26 06:24:38;;;;;;;43.63;21.25;;;;;;;7.12;100.00;100527.19;4930383;29;20091;-84
2022/01/26 06:27:04;;;;;;;45.47;20.95;;;;;;;7.17;100.00;100524.19;4948439;29;20028;-86
2022/01/26 06:29:31;;;;;;;40.90;19.83;;;;;;;7.04;100.00;100528.81;4931572;29;20489;-85
2022/01/26 06:31:57;;;;;;;40.97;20.48;;;;;;;7.03;100.00;100528.03;4916223;29;20027;-86
2022/01/26 06:34:23;;;;;;;37.33;19.65;;;;;;;7.26;100.00;100533.81;4945730;29;20091;-88
2022/01/26 06:36:49;;;;;;;41.35;17.95;;;;;;;7.29;100.00;100517.88;4949631;29;20437;-85
2022/01/26 06:39:15;;;;;;;39.35;18.35;;;;;;;7.29;100.00;100523.13;4945192;29;20027;-85
2022/01/26 06:41:51;;;;;;;36.30;18.70;;;;;;;7.29;100.00;100533.56;4945195;29;20042;-87
2022/01/26 06:44:47;;;;;;;44.90;18.83;;;;;;;7.17;100.00;100525.97;4943154;29;20386;-86
2022/01/26 06:49:35;;;;;;;38.08;18.45;;;;;;;7.46;100.00;100523.38;4942827;29;20056;-85
2022/01/26 06:52:01;;;;;;;34.72;18.48;;;;;;;7.44;100.00;100507.00;4943792;29;20054;-86
2022/01/26 06:54:28;;;;;;;37.75;18.60;;;;;;;7.46;100.00;100520.75;4924771;29;20054;-85
2022/01/26 06:56:53;;;;;;;40.83;18.20;;;;;;;7.57;100.00;100520.63;4930657;29;20035;-87
2022/01/26 06:59:24;;;;;;;39.97;18.88;;;;;;;7.48;100.00;100518.03;4946401;29;20070;-88
2022/01/26 07:01:50;;;;;;;37.42;18.40;;;;;;;7.61;100.00;100529.03;4907798;29;20083;-87
2022/01/26 07:04:16;;;;;;;34.20;18.35;;;;;;;7.68;100.00;100524.91;4912401;29;20477;-89
2022/01/26 07:06:41;;;;;;;32.05;18.15;;;;;;;7.62;100.00;100530.69;4922202;29;20027;-89
2022/01/26 07:09:08;;;;;;;36.58;20.52;;;;;;;7.61;100.00;100512.50;4931861;29;20024;-90
2022/01/26 07:11:34;;;;;;;32.35;18.17;;;;;;;7.55;100.00;100512.13;4928673;29;20044;-87
2022/01/26 07:14:01;;;;;;;34.95;18.08;;;;;;;7.51;100.00;100504.69;4918506;29;20039;-88
2022/01/26 07:22:13;;;;;;;34.22;17.63;;;;;;;6.93;100.00;100528.00;4878534;29;20041;-87
2022/01/26 07:24:38;;;;;;;34.60;17.15;;;;;;;7.04;100.00;100527.06;4931120;29;20043;-90
2022/01/26 07:27:05;;;;;;;35.55;17.73;;;;;;;7.04;100.00;100518.38;4926296;29;20039;-87
2022/01/26 07:29:32;;;;;;;33.03;16.60;;;;;;;6.84;100.00;100519.19;4911631;29;20106;-87
2022/01/26 07:32:07;;;;;;;32.80;16.70;;;;;;;7.06;100.00;100508.63;4938772;29;20039;-87
2022/01/26 07:34:32;;;;;;;31.85;16.58;;;;;;;6.86;100.00;100485.09;4940696;29;20031;-87
2022/01/26 07:37:06;;;;;;;31.65;15.73;;;;;;;6.53;100.00;100474.84;4918632;29;20039;-84
2022/01/26 07:40:16;;;;;;;35.10;15.90;;;;;;;6.48;100.00;100476.22;4929638;29;20032;-84
2022/01/26 07:42:17;;;;;;;29.77;14.45;;;;;;;6.46;100.00;100467.69;4925708;29;20501;-84
2022/01/26 07:44:43;;;;;;;29.27;15.55;;;;;;;6.49;100.00;100473.47;4942886;29;20060;-84
2022/01/26 07:47:11;;;;;;;31.90;15.82;;;;;;;6.41;100.00;100484.56;4944344;29;20083;-84
2022/01/26 07:49:37;;;;;;;30.60;16.95;;;;;;;6.20;100.00;100465.53;4918335;29;20074;-86
2022/01/26 07:52:03;;;;;;;36.20;17.33;;;;;;;6.17;100.00;100489.28;4932454;29;20031;-84
2022/01/26 07:54:31;;;;;;;35.35;18.23;;;;;;;6.24;100.00;100496.44;4953735;29;20102;-88
2022/01/26 07:56:57;;;;;;;32.50;16.60;;;;;;;6.19;100.00;100492.56;4931625;29;20035;-87
2022/01/26 07:59:23;;;;;;;28.83;16.67;;;;;;;6.07;100.00;100489.22;4920264;29;20474;-87
2022/01/26 08:01:52;;;;;;;31.98;17.20;;;;;;;5.99;100.00;100493.28;4931168;29;20028;-85
2022/01/26 08:04:21;;;;;;;35.88;17.00;;;;;;;5.95;100.00;100491.06;4926617;29;20470;-86
2022/01/26 08:06:47;;;;;;;38.33;17.10;;;;;;;5.93;100.00;100513.81;4939661;29;20036;-86
2022/01/26 08:09:15;;;;;;;35.83;18.58;;;;;;;5.81;100.00;100520.88;4924537;29;20027;-88
2022/01/26 08:11:41;;;;;;;31.45;17.10;;;;;;;6.10;100.00;100534.13;4926550;29;20096;-88
2022/01/26 08:14:07;;;;;;;30.98;15.93;;;;;;;6.14;100.00;100519.88;4907959;29;20175;-89
2022/01/26 08:16:33;;;;;;;38.20;18.23;;;;;;;6.12;100.00;100519.16;4910807;29;20115;-88
2022/01/26 08:18:59;;;;;;;38.35;17.42;;;;;;;6.23;100.00;100504.38;4926016;29;20031;-88
2022/01/26 08:21:24;;;;;;;43.58;18.45;;;;;;;6.23;100.00;100526.09;4912847;29;20059;-87
2022/01/26 08:23:50;;;;;;;34.83;16.63;;;;;;;6.28;100.00;100516.09;4949875;29;20050;-87
2022/01/26 08:26:20;;;;;;;31.02;15.38;;;;;;;6.17;100.00;100510.13;4945968;29;20450;-84
2022/01/26 08:28:52;;;;;;;30.00;15.65;;;;;;;6.23;100.00;100515.66;4938763;29;20112;-85
2022/01/26 08:31:18;;;;;;;33.08;15.07;;;;;;;6.39;100.00;100524.78;4942626;29;20038;-86
2022/01/26 08:33:44;;;;;;;31.92;14.50;;;;;;;6.39;100.00;100504.75;4918836;29;20027;-86
2022/01/26 08:36:09;;;;;;;26.98;13.68;;;;;;;6.31;100.00;100517.63;4942280;29;20042;-84
2022/01/26 08:38:36;;;;;;;32.17;13.45;;;;;;;6.34;100.00;100506.94;4927908;29;20090;-86
2022/01/26 08:41:02;;;;;;;28.20;12.65;;;;;;;6.60;100.00;100516.91;4946619;29;20500;-86
2022/01/26 08:43:28;;;;;;;30.85;13.18;;;;;;;6.66;100.00;100523.38;4932677;29;20036;-84
2022/01/26 08:45:54;;;;;;;33.90;14.38;;;;;;;6.71;100.00;100523.81;4948210;29;20028;-84
2022/01/26 08:48:21;;;;;;;25.23;11.60;;;;;;;6.77;100.00;100527.69;4931812;29;20122;-85
2022/01/26 08:50:47;;;;;;;25.27;12.07;;;;;;;6.91;100.00;100532.53;4924216;29;20045;-85
2022/01/26 08:53:13;;;;;;;27.83;12.40;;;;;;;7.02;100.00;100538.59;4929219;29;20039;-86
2022/01/26 08:55:39;;;;;;;24.25;11.02;;;;;;;6.94;100.00;100524.44;4950181;29;20027;-86
2022/01/26 08:58:05;;;;;;;25.40;11.48;;;;;;;7.02;100.00;100525.53;4944685;29;20042;-86
2022/01/26 09:00:32;;;;;;;23.70;11.85;;;;;;;6.94;100.00;100500.94;4925574;29;20474;-85
2022/01/26 09:02:59;;;;;;;23.13;10.60;;;;;;;7.00;100.00;100508.22;4920891;29;20059;-85
2022/01/26 09:05:25;;;;;;;23.75;11.98;;;;;;;6.99;100.00;100501.34;4936309;29;20094;-84
2022/01/26 09:07:55;;;;;;;30.30;12.82;;;;;;;7.09;100.00;100511.81;4913188;29;20439;-85
2022/01/26 09:10:21;;;;;;;29.20;11.23;;;;;;;6.93;100.00;100517.56;4931199;29;20498;-85
2022/01/26 09:12:48;;;;;;;23.13;10.13;;;;;;;6.86;100.00;100517.25;4907023;29;20055;-86
2022/01/26 09:15:15;;;;;;;26.38;10.05;;;;;;;6.86;100.00;100505.97;4928173;29;20112;-83
2022/01/26 09:17:42;;;;;;;24.48;9.68;;;;;;;6.86;100.00;100512.03;4910005;29;20513;-84
2022/01/26 09:20:08;;;;;;;24.80;10.93;;;;;;;6.85;100.00;100505.16;4920751;29;20035;-85
2022/01/26 09:22:34;;;;;;;23.08;10.90;;;;;;;6.90;100.00;100506.56;4911165;29;20028;-85
2022/01/26 09:25:00;;;;;;;20.33;9.95;;;;;;;6.95;100.00;100504.34;4908193;29;20394;-85
2022/01/26 09:27:26;;;;;;;22.60;9.77;;;;;;;7.06;100.00;100503.41;4926258;29;20032;-86
2022/01/26 09:29:52;;;;;;;21.85;10.02;;;;;;;7.07;100.00;100507.66;4892322;29;20043;-83
2022/01/26 09:32:18;;;;;;;23.35;9.82;;;;;;;7.11;100.00;100507.28;4907199;29;20791;-85
2022/01/26 09:34:44;;;;;;;25.45;10.23;;;;;;;7.33;100.00;100528.06;4925193;29;20028;-88
2022/01/26 09:37:13;;;;;;;20.45;9.88;;;;;;;7.48;100.00;100531.94;4910271;29;20102;-86
2022/01/26 09:39:40;;;;;;;19.40;9.65;;;;;;;7.51;100.00;100526.41;4906938;29;20503;-86
2022/01/26 09:42:06;;;;;;;17.88;8.57;;;;;;;7.73;100.00;100516.63;4889272;29;20057;-86
2022/01/26 09:44:32;;;;;;;20.25;8.82;;;;;;;7.91;100.00;100526.38;4906612;29;20490;-85
2022/01/26 09:46:58;;;;;;;18.17;8.23;;;;;;;8.03;100.00;100514.78;4926271;29;20063;-84
2022/01/26 09:49:31;;;;;;;21.85;9.05;;;;;;;8.05;100.00;100506.81;4929822;29;20482;-86
2022/01/26 09:52:01;;;;;;;17.40;8.68;;;;;;;8.10;100.00;100500.19;4905129;29;20541;-85
2022/01/26 09:54:30;;;;;;;22.65;8.10;;;;;;;8.07;100.00;100494.41;4906084;29;20028;-85
2022/01/26 09:57:02;;;;;;;14.43;7.53;;;;;;;8.18;100.00;100496.03;4909174;29;20036;-86
2022/01/26 09:59:28;;;;;;;15.45;7.28;;;;;;;8.16;100.00;100498.81;4906913;29;20032;-86
2022/01/26 10:01:54;;;;;;;37.10;15.48;;;;;;;8.19;100.00;100502.91;4923395;29;20035;-85
2022/01/26 10:04:24;;;;;;;22.77;9.35;;;;;;;7.85;100.00;100512.91;4924519;29;20040;-86
2022/01/26 10:07:25;;;;;;;18.35;9.50;;;;;;;8.05;100.00;100509.44;4905657;29;20114;-85
2022/01/26 10:10:18;;;;;;;23.67;12.63;;;;;;;8.04;100.00;100492.91;4929833;29;20084;-85
2022/01/26 10:15:37;;;;;;;16.50;9.70;;;;;;;7.98;100.00;100490.84;4926218;29;20486;-86
2022/01/26 10:18:15;;;;;;;15.85;8.23;;;;;;;7.84;100.00;100489.53;4922371;29;20032;-85
2022/01/26 10:20:53;;;;;;;23.27;11.65;;;;;;;8.12;100.00;100479.13;4908264;29;20031;-85
2022/01/26 10:23:24;;;;;;;25.80;14.35;;;;;;;8.19;100.00;100482.00;4920946;29;20036;-85
2022/01/26 10:26:13;;;;;;;20.48;8.43;;;;;;;8.47;100.00;100500.34;4925011;29;20119;-85
2022/01/26 10:28:46;;;;;;;23.20;11.60;;;;;;;8.35;100.00;100495.28;4922761;29;20035;-85
2022/01/26 10:31:24;;;;;;;14.77;8.07;;;;;;;8.52;100.00;100492.91;4893788;29;20163;-86
2022/01/26 10:34:09;;;;;;;27.60;15.32;;;;;;;8.61;100.00;100470.28;4907152;29;20123;-86
2022/01/26 10:36:35;;;;;;;17.48;6.80;;;;;;;8.43;100.00;100484.09;4900431;29;20435;-85
2022/01/26 10:39:03;;;;;;;13.80;6.45;;;;;;;8.34;100.00;100477.09;4907759;29;20032;-86
2022/01/26 10:41:29;;;;;;;15.00;7.22;;;;;;;8.33;100.00;100465.84;4926663;29;20040;-85
2022/01/26 10:43:57;;;;;;;13.45;7.32;;;;;;;8.36;100.00;100472.59;4929353;29;20492;-85
2022/01/26 10:46:35;;;;;;;16.10;6.00;;;;;;;8.33;100.00;100478.91;4924001;29;20032;-85
2022/01/26 10:49:42;;;;;;;16.02;5.90;;;;;;;8.67;100.00;100480.16;4925866;29;20047;-85
2022/01/26 10:52:29;;;;;;;12.40;6.63;;;;;;;8.57;100.00;100495.91;4926334;29;20043;-87
2022/01/26 10:54:54;;;;;;;11.57;6.68;;;;;;;8.78;100.00;100481.75;4899196;29;20034;-86
2022/01/26 10:57:20;;;;;;;12.18;4.93;;;;;;;8.88;100.00;100477.28;4892421;29;20488;-84
2022/01/26 10:59:48;;;;;;;15.02;5.60;;;;;;;8.86;100.00;100477.44;4919103;29;20402;-85
2022/01/26 11:02:20;;;;;;;8.77;4.85;;;;;;;8.91;100.00;100478.78;4908278;29;20435;-85
2022/01/26 11:04:46;;;;;;;10.93;4.55;;;;;;;9.00;100.00;100481.31;4924186;29;20032;-84
2022/01/26 11:07:14;;;;;;;11.50;4.07;;;;;;;8.66;100.00;100473.28;4923277;29;20047;-85
2022/01/26 11:09:44;;;;;;;15.07;5.80;;;;;;;8.75;100.00;100472.41;4923273;29;20031;-84
2022/01/26 11:12:13;;;;;;;10.18;5.38;;;;;;;9.09;100.00;100471.75;4933945;29;20051;-85
2022/01/26 11:14:52;;;;;;;9.55;5.35;;;;;;;9.31;100.00;100474.88;4917144;29;20110;-83
2022/01/26 11:17:33;;;;;;;14.02;5.05;;;;;;;9.74;100.00;100476.88;4917395;29;20027;-83
2022/01/26 11:19:59;;;;;;;9.50;4.82;;;;;;;9.84;100.00;100481.06;4916005;29;20028;-84
2022/01/26 11:22:31;;;;;;;14.73;6.10;;;;;;;10.01;100.00;100483.75;4916879;29;20083;-85
2022/01/26 11:25:11;;;;;;;11.18;4.70;;;;;;;10.12;100.00;100475.63;4932642;29;20127;-85
2022/01/26 11:27:40;;;;;;;11.88;4.63;;;;;;;10.24;100.00;100476.19;4933906;29;20032;-83
2022/01/26 11:30:20;;;;;;;10.82;4.43;;;;;;;10.31;100.00;100476.38;4902827;29;20035;-84
2022/01/26 11:32:56;;;;;;;9.88;4.78;;;;;;;10.43;100.00;100461.19;4907001;29;20031;-84
2022/01/26 11:35:26;;;;;;;11.27;5.05;;;;;;;10.95;100.00;100473.31;4937926;29;20482;-83
2022/01/26 11:38:27;;;;;;;10.80;7.05;;;;;;;10.78;100.00;100471.63;4930771;29;20028;-83
2022/01/26 11:46:27;;;;;;;11.50;4.75;;;;;;;9.98;100.00;100449.97;4941125;29;20044;-83
2022/01/26 11:49:02;;;;;;;7.82;4.47;;;;;;;9.98;100.00;100432.44;4940264;29;20111;-83
2022/01/26 11:51:42;;;;;;;10.10;5.70;;;;;;;10.12;100.00;100436.28;4939068;29;20046;-83
2022/01/26 11:54:10;;;;;;;7.22;4.90;;;;;;;10.25;100.00;100432.41;4923361;29;20038;-83
2022/01/26 11:56:36;;;;;;;10.90;5.70;;;;;;;10.13;100.00;100432.66;4934008;29;20031;-83
2022/01/26 11:59:02;;;;;;;13.27;5.72;;;;;;;10.51;100.00;100428.91;4936313;29;20032;-84
2022/01/26 12:01:39;;;;;;;9.65;5.00;;;;;;;10.52;100.00;100427.91;4917341;29;20418;-83
2022/01/26 12:04:14;;;;;;;12.75;5.70;;;;;;;10.29;100.00;100415.34;4921479;29;20052;-83
2022/01/26 12:06:44;;;;;;;9.57;5.80;;;;;;;10.42;100.00;100413.16;4922224;29;20043;-84
2022/01/26 12:09:10;;;;;;;13.60;7.97;;;;;;;10.41;100.00;100397.53;4937797;29;20031;-82
2022/01/26 12:11:37;;;;;;;11.90;6.15;;;;;;;10.53;100.00;100403.31;4948766;29;20043;-83
2022/01/26 12:14:05;;;;;;;10.95;4.70;;;;;;;10.40;100.00;100399.31;4930778;29;20107;-83
2022/01/26 12:16:38;;;;;;;14.60;4.55;;;;;;;10.62;100.00;100402.38;4918477;29;20058;-82
2022/01/26 12:38:15;;;;;;;8.38;4.10;;;;;;;9.10;100.00;100386.16;4945459;29;20122;-83
2022/01/26 12:43:43;;;;;;;12.52;3.25;;;;;;;9.27;100.00;100387.09;4930172;29;20031;-83
2022/01/26 12:46:15;;;;;;;8.15;3.42;;;;;;;9.27;100.00;100387.94;4944309;29;20031;-84
2022/01/26 12:48:46;;;;;;;6.22;2.85;;;;;;;9.33;100.00;100398.75;4926680;29;20042;-83
2022/01/26 12:51:12;;;;;;;8.38;2.92;;;;;;;9.39;100.00;100390.28;4950466;29;20031;-84
2022/01/26 12:53:40;;;;;;;9.32;2.80;;;;;;;9.31;100.00;100393.66;4948175;29;20102;-83
2022/01/26 12:56:11;;;;;;;5.35;2.75;;;;;;;9.30;100.00;100392.03;4947369;29;20027;-83
2022/01/26 12:58:41;;;;;;;8.48;3.33;;;;;;;9.43;100.00;100361.00;4930074;29;20058;-83
2022/01/26 13:01:15;;;;;;;8.98;3.42;;;;;;;9.26;100.00;100359.25;4952929;29;20039;-83
2022/01/26 13:03:42;;;;;;;10.32;4.72;;;;;;;9.26;100.00;100359.25;4949994;29;20050;-83
2022/01/26 13:06:23;;;;;;;16.40;4.05;;;;;;;9.07;100.00;100360.25;4950985;29;20043;-82
2022/01/26 13:08:52;;;;;;;9.80;3.90;;;;;;;8.85;100.00;100346.66;4924112;29;20122;-82
2022/01/26 13:11:30;;;;;;;12.80;3.75;;;;;;;8.75;100.00;100330.22;4929577;29;20410;-82
2022/01/26 13:16:42;;;;;;;10.13;3.90;;;;;;;8.91;100.00;100308.56;4944668;29;20038;-82
2022/01/26 13:19:33;;;;;;;13.13;3.80;;;;;;;8.99;100.00;100311.25;4928816;29;20083;-82
2022/01/26 13:30:01;;;;;;;9.55;4.75;;;;;;;8.59;100.00;100308.16;4950013;29;20035;-83
2022/01/26 13:38:09;;;;;;;9.45;5.00;;;;;;;8.82;100.00;100326.00;4934629;29;20039;-83
2022/01/26 13:59:32;;;;;;;15.63;8.65;;;;;;;8.92;100.00;100258.66;4944794;29;20031;-83
2022/01/26 14:01:59;;;;;;;16.20;7.85;;;;;;;8.73;100.00;100243.16;4927064;29;20040;-83
2022/01/26 14:04:24;;;;;;;13.05;7.30;;;;;;;8.77;100.00;100229.63;4943307;29;20027;-82
2022/01/26 14:06:50;;;;;;;12.18;7.10;;;;;;;8.69;100.00;100235.59;4930776;29;20053;-82
2022/01/26 14:09:15;;;;;;;15.20;7.22;;;;;;;8.76;100.00;100233.22;4946315;29;20038;-83